sensor_id;sensor_type;location;lat;lon;timestamp;pressure;altitude;pressure_sealevel;temperature;humidity
42603;BME280;28233;55.748;48.752;2022-11-20T00:02:00;99935.09;;;-11.30;96.05
42603;BME280;28233;55.748;48.752;2022-11-20T00:04:03;99935.09;;;-11.30;95.96
42603;BME280;28233;55.748;48.752;2022-11-20T00:06:08;99920.50;;;-11.34;95.94
42603;BME280;28233;55.748;48.752;2022-11-20T00:08:11;99915.03;;;-11.32;96.48
42603;BME280;28233;55.748;48.752;2022-11-20T00:10:14;99923.00;;;-11.32;96.44
42603;BME280;28233;55.748;48.752;2022-11-20T00:12:17;99903.25;;;-11.30;96.49
42603;BME280;28233;55.748;48.752;2022-11-20T00:14:19;99901.28;;;-11.28;96.16
42603;BME280;28233;55.748;48.752;2022-11-20T00:16:24;99910.06;;;-11.27;96.65
42603;BME280;28233;55.748;48.752;2022-11-20T00:18:28;99914.38;;;-11.26;96.65
42603;BME280;28233;55.748;48.752;2022-11-20T00:20:30;99906.41;;;-11.26;97.04
42603;BME280;28233;55.748;48.752;2022-11-20T00:22:33;99900.91;;;-11.24;97.04
42603;BME280;28233;55.748;48.752;2022-11-20T00:24:35;99897.94;;;-11.21;97.21
42603;BME280;28233;55.748;48.752;2022-11-20T00:26:44;99905.72;;;-11.20;97.00
42603;BME280;28233;55.748;48.752;2022-11-20T00:28:52;99902.53;;;-11.15;97.60
42603;BME280;28233;55.748;48.752;2022-11-20T00:33:05;99892.91;;;-11.08;97.70
42603;BME280;28233;55.748;48.752;2022-11-20T00:35:07;99902.00;;;-11.02;97.45
42603;BME280;28233;55.748;48.752;2022-11-20T00:37:10;99907.63;;;-10.97;97.81
42603;BME280;28233;55.748;48.752;2022-11-20T00:39:13;99902.13;;;-10.96;97.37
42603;BME280;28233;55.748;48.752;2022-11-20T00:41:16;99908.94;;;-10.93;97.40
42603;BME280;28233;55.748;48.752;2022-11-20T00:43:18;99893.03;;;-10.93;97.85
42603;BME280;28233;55.748;48.752;2022-11-20T00:45:21;99896.78;;;-10.88;97.76
42603;BME280;28233;55.748;48.752;2022-11-20T00:47:24;99896.63;;;-10.86;97.62
42603;BME280;28233;55.748;48.752;2022-11-20T00:49:26;99892.81;;;-10.83;97.62
42603;BME280;28233;55.748;48.752;2022-11-20T00:51:29;99901.22;;;-10.80;97.62
42603;BME280;28233;55.748;48.752;2022-11-20T00:53:32;99900.25;;;-10.79;97.23
42603;BME280;28233;55.748;48.752;2022-11-20T00:55:34;99898.53;;;-10.72;97.41
42603;BME280;28233;55.748;48.752;2022-11-20T00:57:37;99910.44;;;-10.68;97.55
42603;BME280;28233;55.748;48.752;2022-11-20T00:59:40;99907.47;;;-10.65;96.98
42603;BME280;28233;55.748;48.752;2022-11-20T01:01:42;99906.66;;;-10.65;96.80
42603;BME280;28233;55.748;48.752;2022-11-20T01:03:47;99905.47;;;-10.62;96.84
42603;BME280;28233;55.748;48.752;2022-11-20T01:05:50;99907.47;;;-10.65;96.85
42603;BME280;28233;55.748;48.752;2022-11-20T01:07:53;99902.81;;;-10.62;96.77
42603;BME280;28233;55.748;48.752;2022-11-20T01:09:55;99901.78;;;-10.61;97.13
42603;BME280;28233;55.748;48.752;2022-11-20T01:11:58;99892.47;;;-10.57;96.93
42603;BME280;28233;55.748;48.752;2022-11-20T01:14:03;99893.31;;;-10.57;96.83
42603;BME280;28233;55.748;48.752;2022-11-20T01:16:10;99879.22;;;-10.57;96.78
42603;BME280;28233;55.748;48.752;2022-11-20T01:18:13;99885.16;;;-10.55;96.98
42603;BME280;28233;55.748;48.752;2022-11-20T01:20:15;99878.84;;;-10.54;96.75
42603;BME280;28233;55.748;48.752;2022-11-20T01:22:18;99867.25;;;-10.53;96.61
42603;BME280;28233;55.748;48.752;2022-11-20T01:24:21;99872.56;;;-10.53;97.24
42603;BME280;28233;55.748;48.752;2022-11-20T01:26:31;99860.09;;;-10.53;96.67
42603;BME280;28233;55.748;48.752;2022-11-20T01:28:34;99864.88;;;-10.48;96.76
42603;BME280;28233;55.748;48.752;2022-11-20T01:30:37;99862.88;;;-10.46;96.76
42603;BME280;28233;55.748;48.752;2022-11-20T01:32:39;99863.84;;;-10.47;96.64
42603;BME280;28233;55.748;48.752;2022-11-20T01:34:42;99866.16;;;-10.44;96.49
42603;BME280;28233;55.748;48.752;2022-11-20T01:36:46;99854.53;;;-10.43;97.05
42603;BME280;28233;55.748;48.752;2022-11-20T01:38:56;99854.47;;;-10.35;96.64
42603;BME280;28233;55.748;48.752;2022-11-20T01:40:59;99849.16;;;-10.35;96.89
42603;BME280;28233;55.748;48.752;2022-11-20T01:43:18;99862.09;;;-10.32;96.49
42603;BME280;28233;55.748;48.752;2022-11-20T01:48:18;99850.06;;;-10.28;96.44
42603;BME280;28233;55.748;48.752;2022-11-20T01:50:27;99857.25;;;-10.28;96.32
42603;BME280;28233;55.748;48.752;2022-11-20T01:52:52;99846.81;;;-10.30;96.59
42603;BME280;28233;55.748;48.752;2022-11-20T01:55:04;99839.19;;;-10.33;96.23
42603;BME280;28233;55.748;48.752;2022-11-20T01:57:10;99849.28;;;-10.28;96.58
42603;BME280;28233;55.748;48.752;2022-11-20T01:59:16;99843.94;;;-10.28;96.64
42603;BME280;28233;55.748;48.752;2022-11-20T02:01:21;99836.25;;;-10.23;96.38
42603;BME280;28233;55.748;48.752;2022-11-20T02:03:24;99843.22;;;-10.22;96.28
42603;BME280;28233;55.748;48.752;2022-11-20T02:07:49;99840.38;;;-10.21;96.36
42603;BME280;28233;55.748;48.752;2022-11-20T02:09:52;99837.53;;;-10.19;96.60
42603;BME280;28233;55.748;48.752;2022-11-20T02:12:00;99840.69;;;-10.15;96.51
42603;BME280;28233;55.748;48.752;2022-11-20T02:14:03;99841.31;;;-10.13;96.89
42603;BME280;28233;55.748;48.752;2022-11-20T02:16:10;99842.16;;;-10.13;96.58
42603;BME280;28233;55.748;48.752;2022-11-20T02:18:16;99834.63;;;-10.09;96.68
42603;BME280;28233;55.748;48.752;2022-11-20T02:20:20;99822.34;;;-10.10;96.68
42603;BME280;28233;55.748;48.752;2022-11-20T02:22:29;99826.66;;;-10.09;96.88
42603;BME280;28233;55.748;48.752;2022-11-20T02:24:33;99809.06;;;-10.10;96.40
42603;BME280;28233;55.748;48.752;2022-11-20T02:27:03;99822.63;;;-10.05;96.29
42603;BME280;28233;55.748;48.752;2022-11-20T02:29:07;99812.16;;;-10.07;96.32
42603;BME280;28233;55.748;48.752;2022-11-20T02:31:10;99807.06;;;-10.08;96.25
42603;BME280;28233;55.748;48.752;2022-11-20T02:33:13;99799.16;;;-10.16;95.78
42603;BME280;28233;55.748;48.752;2022-11-20T02:37:21;99798.31;;;-10.17;95.97
42603;BME280;28233;55.748;48.752;2022-11-20T02:39:25;99804.66;;;-10.18;96.14
42603;BME280;28233;55.748;48.752;2022-11-20T02:41:36;99800.16;;;-10.17;96.15
42603;BME280;28233;55.748;48.752;2022-11-20T02:43:39;99805.13;;;-10.14;96.08
42603;BME280;28233;55.748;48.752;2022-11-20T02:45:42;99788.34;;;-10.15;96.05
42603;BME280;28233;55.748;48.752;2022-11-20T02:47:45;99805.22;;;-10.08;96.35
42603;BME280;28233;55.748;48.752;2022-11-20T02:49:47;99790.75;;;-10.05;95.95
42603;BME280;28233;55.748;48.752;2022-11-20T02:51:50;99799.38;;;-10.03;95.90
42603;BME280;28233;55.748;48.752;2022-11-20T02:53:53;99801.38;;;-10.05;96.20
42603;BME280;28233;55.748;48.752;2022-11-20T02:55:55;99806.50;;;-10.04;96.01
42603;BME280;28233;55.748;48.752;2022-11-20T02:57:58;99800.56;;;-10.06;95.82
42603;BME280;28233;55.748;48.752;2022-11-20T03:00:00;99799.72;;;-10.06;95.91
42603;BME280;28233;55.748;48.752;2022-11-20T03:02:06;99796.06;;;-10.05;95.92
42603;BME280;28233;55.748;48.752;2022-11-20T03:04:09;99798.72;;;-10.05;96.24
42603;BME280;28233;55.748;48.752;2022-11-20T03:06:12;99796.06;;;-10.05;95.96
42603;BME280;28233;55.748;48.752;2022-11-20T03:08:14;99792.22;;;-10.03;96.04
42603;BME280;28233;55.748;48.752;2022-11-20T03:10:17;99795.34;;;-9.99;96.02
42603;BME280;28233;55.748;48.752;2022-11-20T03:12:19;99790.38;;;-10.02;96.35
42603;BME280;28233;55.748;48.752;2022-11-20T03:14:22;99786.72;;;-10.01;95.82
42603;BME280;28233;55.748;48.752;2022-11-20T03:16:25;99772.41;;;-10.00;95.91
42603;BME280;28233;55.748;48.752;2022-11-20T03:18:28;99774.41;;;-10.02;95.63
42603;BME280;28233;55.748;48.752;2022-11-20T03:20:32;99771.13;;;-10.04;95.59
42603;BME280;28233;55.748;48.752;2022-11-20T03:22:35;99769.31;;;-10.04;95.52
42603;BME280;28233;55.748;48.752;2022-11-20T03:24:37;99760.84;;;-10.07;95.14
42603;BME280;28233;55.748;48.752;2022-11-20T03:26:40;99781.75;;;-10.04;95.54
42603;BME280;28233;55.748;48.752;2022-11-20T03:28:48;99775.06;;;-10.00;95.68
42603;BME280;28233;55.748;48.752;2022-11-20T03:30:51;99778.53;;;-10.00;94.96
42603;BME280;28233;55.748;48.752;2022-11-20T03:32:54;99784.97;;;-9.94;95.25
42603;BME280;28233;55.748;48.752;2022-11-20T03:34:56;99784.16;;;-9.94;95.63
42603;BME280;28233;55.748;48.752;2022-11-20T03:36:59;99788.28;;;-9.92;95.80
42603;BME280;28233;55.748;48.752;2022-11-20T03:39:02;99799.19;;;-9.87;95.08
42603;BME280;28233;55.748;48.752;2022-11-20T03:41:09;99802.31;;;-9.83;95.70
42603;BME280;28233;55.748;48.752;2022-11-20T03:43:11;99799.31;;;-9.80;94.95
42603;BME280;28233;55.748;48.752;2022-11-20T03:45:16;99798.66;;;-9.82;95.20
42603;BME280;28233;55.748;48.752;2022-11-20T03:47:19;99793.13;;;-9.81;95.55
42603;BME280;28233;55.748;48.752;2022-11-20T03:49:21;99792.31;;;-9.81;95.64
42603;BME280;28233;55.748;48.752;2022-11-20T03:51:30;99790.47;;;-9.81;95.08
42603;BME280;28233;55.748;48.752;2022-11-20T03:53:32;99784.16;;;-9.80;95.10
42603;BME280;28233;55.748;48.752;2022-11-20T03:55:35;99789.47;;;-9.80;94.84
42603;BME280;28233;55.748;48.752;2022-11-20T03:57:38;99776.19;;;-9.80;95.18
42603;BME280;28233;55.748;48.752;2022-11-20T03:59:40;99772.97;;;-9.75;95.19
42603;BME280;28233;55.748;48.752;2022-11-20T04:01:43;99775.63;;;-9.75;94.89
42603;BME280;28233;55.748;48.752;2022-11-20T04:03:52;99785.09;;;-9.72;94.81
42603;BME280;28233;55.748;48.752;2022-11-20T04:05:55;99778.13;;;-9.73;94.98
42603;BME280;28233;55.748;48.752;2022-11-20T04:07:57;99781.69;;;-9.66;94.83
42603;BME280;28233;55.748;48.752;2022-11-20T04:10:00;99799.94;;;-9.63;95.08
42603;BME280;28233;55.748;48.752;2022-11-20T04:12:04;99818.44;;;-9.55;94.92
42603;BME280;28233;55.748;48.752;2022-11-20T04:14:13;99830.84;;;-9.47;95.02
42603;BME280;28233;55.748;48.752;2022-11-20T04:16:16;99822.88;;;-9.47;95.10
42603;BME280;28233;55.748;48.752;2022-11-20T04:18:19;99817.72;;;-9.49;94.56
42603;BME280;28233;55.748;48.752;2022-11-20T04:20:22;99823.88;;;-9.48;94.74
42603;BME280;28233;55.748;48.752;2022-11-20T04:22:25;99831.47;;;-9.45;94.93
42603;BME280;28233;55.748;48.752;2022-11-20T04:24:27;99837.44;;;-9.43;94.68
42603;BME280;28233;55.748;48.752;2022-11-20T04:26:30;99829.94;;;-9.40;94.92
42603;BME280;28233;55.748;48.752;2022-11-20T04:28:33;99828.09;;;-9.39;95.16
42603;BME280;28233;55.748;48.752;2022-11-20T04:30:36;99831.81;;;-9.33;94.72
42603;BME280;28233;55.748;48.752;2022-11-20T04:32:39;99825.50;;;-9.32;94.80
42603;BME280;28233;55.748;48.752;2022-11-20T04:34:41;99830.19;;;-9.34;94.03
42603;BME280;28233;55.748;48.752;2022-11-20T04:36:44;99843.13;;;-9.31;94.50
42603;BME280;28233;55.748;48.752;2022-11-20T04:38:53;99839.09;;;-9.27;94.42
42603;BME280;28233;55.748;48.752;2022-11-20T04:40:59;99845.31;;;-9.20;94.85
42603;BME280;28233;55.748;48.752;2022-11-20T04:43:02;99853.31;;;-9.20;94.64
42603;BME280;28233;55.748;48.752;2022-11-20T04:45:05;99851.28;;;-9.18;94.43
42603;BME280;28233;55.748;48.752;2022-11-20T04:47:08;99841.28;;;-9.16;94.72
42603;BME280;28233;55.748;48.752;2022-11-20T04:49:11;99824.28;;;-9.15;94.95
42603;BME280;28233;55.748;48.752;2022-11-20T04:51:14;99835.41;;;-9.11;94.26
42603;BME280;28233;55.748;48.752;2022-11-20T04:53:18;99829.69;;;-9.08;94.72
42603;BME280;28233;55.748;48.752;2022-11-20T04:55:21;99841.53;;;-9.11;94.53
42603;BME280;28233;55.748;48.752;2022-11-20T04:57:23;99831.53;;;-9.09;94.76
42603;BME280;28233;55.748;48.752;2022-11-20T04:59:26;99832.75;;;-9.11;94.30
42603;BME280;28233;55.748;48.752;2022-11-20T05:01:29;99817.75;;;-9.12;93.89
42603;BME280;28233;55.748;48.752;2022-11-20T05:03:31;99818.97;;;-9.15;94.09
42603;BME280;28233;55.748;48.752;2022-11-20T05:05:37;99806.03;;;-9.18;93.61
42603;BME280;28233;55.748;48.752;2022-11-20T05:07:40;99802.94;;;-9.22;93.20
42603;BME280;28233;55.748;48.752;2022-11-20T05:09:42;99796.75;;;-9.22;93.31
42603;BME280;28233;55.748;48.752;2022-11-20T05:11:45;99807.31;;;-9.14;93.82
42603;BME280;28233;55.748;48.752;2022-11-20T05:13:52;99809.97;;;-9.14;93.54
42603;BME280;28233;55.748;48.752;2022-11-20T05:15:55;99802.16;;;-9.16;94.15
42603;BME280;28233;55.748;48.752;2022-11-20T05:18:02;99800.16;;;-9.13;93.55
42603;BME280;28233;55.748;48.752;2022-11-20T05:20:06;99812.25;;;-9.11;93.59
42603;BME280;28233;55.748;48.752;2022-11-20T05:22:08;99814.53;;;-9.08;93.58
42603;BME280;28233;55.748;48.752;2022-11-20T05:24:11;99823.63;;;-9.02;93.51
42603;BME280;28233;55.748;48.752;2022-11-20T05:26:17;99821.78;;;-9.02;93.85
42603;BME280;28233;55.748;48.752;2022-11-20T05:28:21;99824.06;;;-8.99;94.15
42603;BME280;28233;55.748;48.752;2022-11-20T05:30:24;99808.09;;;-8.99;93.48
42603;BME280;28233;55.748;48.752;2022-11-20T05:32:26;99815.16;;;-8.91;93.64
42603;BME280;28233;55.748;48.752;2022-11-20T05:34:29;99819.28;;;-8.88;93.97
42603;BME280;28233;55.748;48.752;2022-11-20T05:36:32;99814.13;;;-8.90;93.68
42603;BME280;28233;55.748;48.752;2022-11-20T05:38:34;99802.28;;;-8.87;93.15
42603;BME280;28233;55.748;48.752;2022-11-20T05:40:37;99801.91;;;-8.84;93.86
42603;BME280;28233;55.748;48.752;2022-11-20T05:42:40;99804.38;;;-8.83;93.39
42603;BME280;28233;55.748;48.752;2022-11-20T05:44:42;99810.72;;;-8.84;93.74
42603;BME280;28233;55.748;48.752;2022-11-20T05:46:45;99797.66;;;-8.79;93.42
42603;BME280;28233;55.748;48.752;2022-11-20T05:48:47;99798.94;;;-8.75;93.79
42603;BME280;28233;55.748;48.752;2022-11-20T05:50:50;99796.16;;;-8.66;94.09
42603;BME280;28233;55.748;48.752;2022-11-20T05:52:53;99800.28;;;-8.64;93.45
42603;BME280;28233;55.748;48.752;2022-11-20T05:54:56;99798.06;;;-8.60;93.56
42603;BME280;28233;55.748;48.752;2022-11-20T05:56:59;99785.19;;;-8.57;93.72
42603;BME280;28233;55.748;48.752;2022-11-20T05:59:02;99786.06;;;-8.49;93.35
42603;BME280;28233;55.748;48.752;2022-11-20T06:01:18;99788.53;;;-8.48;93.32
42603;BME280;28233;55.748;48.752;2022-11-20T06:03:22;99780.94;;;-8.51;93.59
42603;BME280;28233;55.748;48.752;2022-11-20T06:05:24;99782.38;;;-8.48;93.53
42603;BME280;28233;55.748;48.752;2022-11-20T06:07:27;99778.69;;;-8.47;93.30
42603;BME280;28233;55.748;48.752;2022-11-20T06:09:31;99773.44;;;-8.41;93.12
42603;BME280;28233;55.748;48.752;2022-11-20T06:11:33;99776.28;;;-8.42;93.18
42603;BME280;28233;55.748;48.752;2022-11-20T06:13:36;99787.41;;;-8.32;93.40
42603;BME280;28233;55.748;48.752;2022-11-20T06:15:53;99784.75;;;-8.32;93.07
42603;BME280;28233;55.748;48.752;2022-11-20T06:17:56;99779.22;;;-8.31;93.21
42603;BME280;28233;55.748;48.752;2022-11-20T06:19:58;99772.44;;;-8.33;93.82
42603;BME280;28233;55.748;48.752;2022-11-20T06:22:01;99768.94;;;-8.34;93.87
42603;BME280;28233;55.748;48.752;2022-11-20T06:24:04;99780.03;;;-8.30;93.70
42603;BME280;28233;55.748;48.752;2022-11-20T06:26:09;99778.84;;;-8.27;93.10
42603;BME280;28233;55.748;48.752;2022-11-20T06:28:12;99772.72;;;-8.21;93.53
42603;BME280;28233;55.748;48.752;2022-11-20T06:30:14;99766.81;;;-8.17;93.19
42603;BME280;28233;55.748;48.752;2022-11-20T06:32:17;99768.66;;;-8.17;93.49
42603;BME280;28233;55.748;48.752;2022-11-20T06:34:20;99777.47;;;-8.17;93.22
42603;BME280;28233;55.748;48.752;2022-11-20T06:36:23;99773.25;;;-8.11;93.76
42603;BME280;28233;55.748;48.752;2022-11-20T06:38:27;99781.47;;;-8.06;93.48
42603;BME280;28233;55.748;48.752;2022-11-20T06:40:29;99782.53;;;-8.00;93.45
42603;BME280;28233;55.748;48.752;2022-11-20T06:42:32;99793.66;;;-7.90;93.53
42603;BME280;28233;55.748;48.752;2022-11-20T06:44:35;99788.00;;;-7.80;93.65
42603;BME280;28233;55.748;48.752;2022-11-20T06:46:37;99787.03;;;-7.73;93.87
42603;BME280;28233;55.748;48.752;2022-11-20T06:48:40;99785.84;;;-7.63;94.14
42603;BME280;28233;55.748;48.752;2022-11-20T06:50:43;99785.44;;;-7.60;93.72
42603;BME280;28233;55.748;48.752;2022-11-20T06:52:45;99794.94;;;-7.51;93.45
42603;BME280;28233;55.748;48.752;2022-11-20T06:54:48;99795.56;;;-7.49;92.44
42603;BME280;28233;55.748;48.752;2022-11-20T06:56:51;99789.19;;;-7.48;92.72
42603;BME280;28233;55.748;48.752;2022-11-20T06:58:53;99796.19;;;-7.47;92.52
42603;BME280;28233;55.748;48.752;2022-11-20T07:01:05;99793.75;;;-7.42;93.14
42603;BME280;28233;55.748;48.752;2022-11-20T07:03:09;99790.09;;;-7.34;92.43
42603;BME280;28233;55.748;48.752;2022-11-20T07:05:12;99797.31;;;-7.28;91.93
42603;BME280;28233;55.748;48.752;2022-11-20T07:07:15;99791.38;;;-7.24;91.91
42603;BME280;28233;55.748;48.752;2022-11-20T07:09:17;99791.75;;;-7.27;91.73
42603;BME280;28233;55.748;48.752;2022-11-20T07:11:20;99787.25;;;-7.26;91.46
42603;BME280;28233;55.748;48.752;2022-11-20T07:13:23;99782.34;;;-7.23;91.57
42603;BME280;28233;55.748;48.752;2022-11-20T07:15:25;99788.94;;;-7.18;92.20
42603;BME280;28233;55.748;48.752;2022-11-20T07:17:28;99780.72;;;-7.10;91.61
42603;BME280;28233;55.748;48.752;2022-11-20T07:19:31;99782.38;;;-7.09;92.02
42603;BME280;28233;55.748;48.752;2022-11-20T07:21:33;99771.88;;;-7.17;91.14
42603;BME280;28233;55.748;48.752;2022-11-20T07:23:37;99786.47;;;-7.13;91.24
42603;BME280;28233;55.748;48.752;2022-11-20T07:25:40;99786.88;;;-7.16;90.70
42603;BME280;28233;55.748;48.752;2022-11-20T07:27:43;99781.31;;;-7.21;90.25
42603;BME280;28233;55.748;48.752;2022-11-20T07:29:46;99774.75;;;-7.19;90.96
42603;BME280;28233;55.748;48.752;2022-11-20T07:31:48;99784.84;;;-7.14;91.55
42603;BME280;28233;55.748;48.752;2022-11-20T07:33:51;99778.88;;;-7.16;91.02
42603;BME280;28233;55.748;48.752;2022-11-20T07:35:54;99764.09;;;-7.12;90.37
42603;BME280;28233;55.748;48.752;2022-11-20T07:37:56;99760.41;;;-7.11;91.02
42603;BME280;28233;55.748;48.752;2022-11-20T07:39:59;99772.13;;;-7.12;90.64
42603;BME280;28233;55.748;48.752;2022-11-20T07:42:06;99770.88;;;-7.10;90.54
42603;BME280;28233;55.748;48.752;2022-11-20T07:44:09;99766.78;;;-7.06;90.97
42603;BME280;28233;55.748;48.752;2022-11-20T07:46:12;99765.97;;;-7.06;90.33
42603;BME280;28233;55.748;48.752;2022-11-20T07:48:15;99768.00;;;-7.08;90.26
42603;BME280;28233;55.748;48.752;2022-11-20T07:50:19;99770.88;;;-7.03;90.87
42603;BME280;28233;55.748;48.752;2022-11-20T07:52:23;99771.13;;;-6.98;90.90
42603;BME280;28233;55.748;48.752;2022-11-20T07:54:26;99746.59;;;-7.15;90.10
42603;BME280;28233;55.748;48.752;2022-11-20T07:56:29;99762.72;;;-6.95;90.82
42603;BME280;28233;55.748;48.752;2022-11-20T07:58:32;99771.34;;;-6.93;90.29
42603;BME280;28233;55.748;48.752;2022-11-20T08:00:36;99763.34;;;-6.86;90.97
42603;BME280;28233;55.748;48.752;2022-11-20T08:02:40;99769.72;;;-6.81;90.95
42603;BME280;28233;55.748;48.752;2022-11-20T08:04:43;99767.69;;;-6.78;90.29
42603;BME280;28233;55.748;48.752;2022-11-20T08:06:46;99773.03;;;-6.72;90.35
42603;BME280;28233;55.748;48.752;2022-11-20T08:08:49;99766.47;;;-6.69;90.97
42603;BME280;28233;55.748;48.752;2022-11-20T08:10:51;99769.34;;;-6.64;89.91
42603;BME280;28233;55.748;48.752;2022-11-20T08:12:54;99769.75;;;-6.67;89.91
42603;BME280;28233;55.748;48.752;2022-11-20T08:15:15;99766.47;;;-6.69;89.83
42603;BME280;28233;55.748;48.752;2022-11-20T08:17:17;99762.53;;;-6.80;89.32
42603;BME280;28233;55.748;48.752;2022-11-20T08:19:20;99767.88;;;-6.73;89.70
42603;BME280;28233;55.748;48.752;2022-11-20T08:21:23;99765.03;;;-6.72;90.20
42603;BME280;28233;55.748;48.752;2022-11-20T08:23:26;99764.78;;;-6.70;90.10
42603;BME280;28233;55.748;48.752;2022-11-20T08:25:30;99762.97;;;-6.70;90.09
42603;BME280;28233;55.748;48.752;2022-11-20T08:27:33;99758.63;;;-6.77;89.93
42603;BME280;28233;55.748;48.752;2022-11-20T08:29:36;99763.16;;;-6.78;90.14
42603;BME280;28233;55.748;48.752;2022-11-20T08:31:39;99757.00;;;-6.78;90.29
42603;BME280;28233;55.748;48.752;2022-11-20T08:33:41;99752.88;;;-6.81;89.99
42603;BME280;28233;55.748;48.752;2022-11-20T08:35:44;99746.31;;;-6.78;90.25
42603;BME280;28233;55.748;48.752;2022-11-20T08:37:47;99741.34;;;-6.75;90.51
42603;BME280;28233;55.748;48.752;2022-11-20T08:39:50;99743.84;;;-6.73;91.13
42603;BME280;28233;55.748;48.752;2022-11-20T08:41:55;99740.34;;;-6.74;90.39
42603;BME280;28233;55.748;48.752;2022-11-20T08:43:59;99747.13;;;-6.71;91.04
42603;BME280;28233;55.748;48.752;2022-11-20T08:46:02;99746.94;;;-6.76;90.66
42603;BME280;28233;55.748;48.752;2022-11-20T08:48:05;99744.44;;;-6.78;91.10
42603;BME280;28233;55.748;48.752;2022-11-20T08:50:09;99744.44;;;-6.78;90.14
42603;BME280;28233;55.748;48.752;2022-11-20T08:52:12;99753.28;;;-6.77;91.57
42603;BME280;28233;55.748;48.752;2022-11-20T08:54:14;99746.09;;;-6.77;91.32
42603;BME280;28233;55.748;48.752;2022-11-20T08:56:17;99744.25;;;-6.76;91.17
42603;BME280;28233;55.748;48.752;2022-11-20T08:58:20;99745.25;;;-6.77;91.33
42603;BME280;28233;55.748;48.752;2022-11-20T09:00:23;99739.91;;;-6.77;91.52
42603;BME280;28233;55.748;48.752;2022-11-20T09:02:26;99738.06;;;-6.84;90.91
42603;BME280;28233;55.748;48.752;2022-11-20T09:04:28;99743.63;;;-6.78;90.85
42603;BME280;28233;55.748;48.752;2022-11-20T09:06:31;99738.91;;;-6.83;90.33
42603;BME280;28233;55.748;48.752;2022-11-20T09:08:34;99747.09;;;-6.85;90.62
42603;BME280;28233;55.748;48.752;2022-11-20T09:10:38;99745.88;;;-6.82;91.38
42603;BME280;28233;55.748;48.752;2022-11-20T09:12:43;99748.16;;;-6.79;91.50
42603;BME280;28233;55.748;48.752;2022-11-20T09:14:46;99752.28;;;-6.70;91.60
42603;BME280;28233;55.748;48.752;2022-11-20T09:16:56;99751.06;;;-6.67;91.32
42603;BME280;28233;55.748;48.752;2022-11-20T09:18:59;99752.69;;;-6.66;91.12
42603;BME280;28233;55.748;48.752;2022-11-20T09:21:22;99747.97;;;-6.64;91.58
42603;BME280;28233;55.748;48.752;2022-11-20T09:23:27;99751.06;;;-6.61;90.98
42603;BME280;28233;55.748;48.752;2022-11-20T09:25:29;99754.13;;;-6.57;91.00
42603;BME280;28233;55.748;48.752;2022-11-20T09:27:32;99751.25;;;-6.62;91.00
42603;BME280;28233;55.748;48.752;2022-11-20T09:29:35;99754.94;;;-6.63;91.00
42603;BME280;28233;55.748;48.752;2022-11-20T09:31:37;99762.56;;;-6.60;91.23
42603;BME280;28233;55.748;48.752;2022-11-20T09:33:40;99755.38;;;-6.60;91.38
42603;BME280;28233;55.748;48.752;2022-11-20T09:35:43;99752.50;;;-6.65;90.34
42603;BME280;28233;55.748;48.752;2022-11-20T09:37:46;99757.63;;;-6.63;90.34
42603;BME280;28233;55.748;48.752;2022-11-20T09:39:49;99755.19;;;-6.58;91.00
42603;BME280;28233;55.748;48.752;2022-11-20T09:42:19;99742.81;;;-6.59;90.38
42603;BME280;28233;55.748;48.752;2022-11-20T09:45:02;99744.88;;;-6.54;90.23
42603;BME280;28233;55.748;48.752;2022-11-20T09:47:13;99760.53;;;-6.58;89.63
42603;BME280;28233;55.748;48.752;2022-11-20T09:49:31;99759.06;;;-6.54;89.81
42603;BME280;28233;55.748;48.752;2022-11-20T09:53:49;99769.78;;;-6.61;89.63
42603;BME280;28233;55.748;48.752;2022-11-20T09:55:55;99763.41;;;-6.53;89.97
42603;BME280;28233;55.748;48.752;2022-11-20T09:57:59;99765.03;;;-6.45;90.52
42603;BME280;28233;55.748;48.752;2022-11-20T10:00:05;99763.00;;;-6.43;89.95
42603;BME280;28233;55.748;48.752;2022-11-20T10:04:29;99757.84;;;-6.38;89.95
42603;BME280;28233;55.748;48.752;2022-11-20T10:06:47;99767.31;;;-6.29;90.94
42603;BME280;28233;55.748;48.752;2022-11-20T10:11:46;99776.78;;;-6.13;90.85
42603;BME280;28233;55.748;48.752;2022-11-20T10:16:21;99768.56;;;-6.25;89.33
42603;BME280;28233;55.748;48.752;2022-11-20T10:21:52;99770.19;;;-6.24;90.28
42603;BME280;28233;55.748;48.752;2022-11-20T10:26:21;99770.81;;;-6.22;89.77
42603;BME280;28233;55.748;48.752;2022-11-20T10:30:51;99765.25;;;-6.13;89.66
42603;BME280;28233;55.748;48.752;2022-11-20T10:33:23;99770.81;;;-6.08;89.95
42603;BME280;28233;55.748;48.752;2022-11-20T10:35:40;99771.81;;;-6.09;89.58
42603;BME280;28233;55.748;48.752;2022-11-20T10:37:49;99777.59;;;-6.12;89.22
42603;BME280;28233;55.748;48.752;2022-11-20T10:42:44;99768.13;;;-6.15;89.29
42603;BME280;28233;55.748;48.752;2022-11-20T10:44:52;99769.38;;;-6.18;89.18
42603;BME280;28233;55.748;48.752;2022-11-20T10:47:18;99767.72;;;-6.19;89.08
42603;BME280;28233;55.748;48.752;2022-11-20T10:49:20;99768.94;;;-6.14;89.69
42603;BME280;28233;55.748;48.752;2022-11-20T10:51:37;99760.94;;;-6.14;89.57
42603;BME280;28233;55.748;48.752;2022-11-20T10:56:05;99758.25;;;-6.08;89.96
42603;BME280;28233;55.748;48.752;2022-11-20T10:58:20;99759.69;;;-6.12;89.29
42603;BME280;28233;55.748;48.752;2022-11-20T11:00:25;99760.31;;;-6.10;89.74
42603;BME280;28233;55.748;48.752;2022-11-20T11:04:47;99759.50;;;-6.04;90.26
42603;BME280;28233;55.748;48.752;2022-11-20T11:06:51;99766.47;;;-6.03;89.99
42603;BME280;28233;55.748;48.752;2022-11-20T11:09:01;99770.19;;;-6.04;90.19
42603;BME280;28233;55.748;48.752;2022-11-20T11:13:25;99764.84;;;-6.04;90.84
42603;BME280;28233;55.748;48.752;2022-11-20T11:15:41;99769.38;;;-6.04;91.17
42603;BME280;28233;55.748;48.752;2022-11-20T11:17:47;99776.16;;;-6.02;91.36
42603;BME280;28233;55.748;48.752;2022-11-20T11:20:05;99770.34;;;-5.92;91.54
42603;BME280;28233;55.748;48.752;2022-11-20T11:22:16;99774.47;;;-5.89;90.75
42603;BME280;28233;55.748;48.752;2022-11-20T11:24:30;99773.03;;;-5.85;91.66
42603;BME280;28233;55.748;48.752;2022-11-20T11:26:59;99774.88;;;-5.92;90.93
42603;BME280;28233;55.748;48.752;2022-11-20T11:29:17;99771.81;;;-5.96;91.18